sensor_id;sensor_type;location;lat;lon;timestamp;pressure;altitude;pressure_sealevel;temperature;humidity
13974;BME280;7060;43.770;4.008;2023-04-03T00:01:23;101215.28;;;11.64;47.82
13974;BME280;7060;43.770;4.008;2023-04-03T00:03:52;101209.09;;;11.63;47.98
13974;BME280;7060;43.770;4.008;2023-04-03T00:06:21;101204.56;;;11.64;48.12
13974;BME280;7060;43.770;4.008;2023-04-03T00:08:51;101200.47;;;11.60;48.36
13974;BME280;7060;43.770;4.008;2023-04-03T00:11:20;101201.50;;;11.49;49.10
13974;BME280;7060;43.770;4.008;2023-04-03T00:13:48;101197.69;;;11.42;49.95
13974;BME280;7060;43.770;4.008;2023-04-03T00:16:17;101186.66;;;11.35;50.29
13974;BME280;7060;43.770;4.008;2023-04-03T00:18:45;101193.72;;;11.27;49.92
13974;BME280;7060;43.770;4.008;2023-04-03T00:21:14;101188.09;;;11.20;50.03
13974;BME280;7060;43.770;4.008;2023-04-03T00:23:43;101178.78;;;11.14;49.69
13974;BME280;7060;43.770;4.008;2023-04-03T00:26:13;101179.03;;;11.11;49.77
13974;BME280;7060;43.770;4.008;2023-04-03T00:28:41;101170.31;;;11.09;49.78
13974;BME280;7060;43.770;4.008;2023-04-03T00:31:10;101178.59;;;11.06;49.59
13974;BME280;7060;43.770;4.008;2023-04-03T00:33:38;101167.75;;;11.08;49.41
13974;BME280;7060;43.770;4.008;2023-04-03T00:36:08;101122.81;;;10.82;49.64
13974;BME280;7060;43.770;4.008;2023-04-03T00:38:37;101159.03;;;11.06;49.84
13974;BME280;7060;43.770;4.008;2023-04-03T00:41:06;101161.44;;;11.09;49.42
13974;BME280;7060;43.770;4.008;2023-04-03T00:43:36;101162.13;;;11.11;49.48
13974;BME280;7060;43.770;4.008;2023-04-03T00:46:05;101164.69;;;11.12;49.42
13974;BME280;7060;43.770;4.008;2023-04-03T00:48:37;101169.91;;;11.14;49.01
13974;BME280;7060;43.770;4.008;2023-04-03T00:51:10;101145.38;;;11.09;49.02
13974;BME280;7060;43.770;4.008;2023-04-03T00:53:42;101149.63;;;11.21;49.34
13974;BME280;7060;43.770;4.008;2023-04-03T00:56:14;101155.97;;;11.20;49.19
13974;BME280;7060;43.770;4.008;2023-04-03T00:58:48;101158.91;;;11.17;50.05
13974;BME280;7060;43.770;4.008;2023-04-03T01:01:21;101154.09;;;11.11;50.72
13974;BME280;7060;43.770;4.008;2023-04-03T01:03:51;101145.66;;;11.06;50.14
13974;BME280;7060;43.770;4.008;2023-04-03T01:06:23;101148.91;;;11.00;50.24
13974;BME280;7060;43.770;4.008;2023-04-03T01:08:53;101152.44;;;11.00;49.83
13974;BME280;7060;43.770;4.008;2023-04-03T01:11:23;101128.06;;;10.94;49.48
13974;BME280;7060;43.770;4.008;2023-04-03T01:13:53;101113.94;;;10.82;49.90
13974;BME280;7060;43.770;4.008;2023-04-03T01:16:23;101136.78;;;11.05;49.50
13974;BME280;7060;43.770;4.008;2023-04-03T01:18:52;101140.16;;;11.07;49.37
13974;BME280;7060;43.770;4.008;2023-04-03T01:24:24;101137.09;;;11.02;49.36
13974;BME280;7060;43.770;4.008;2023-04-03T01:26:55;101138.19;;;11.00;48.88
13974;BME280;7060;43.770;4.008;2023-04-03T01:29:25;101132.84;;;11.00;48.99
13974;BME280;7060;43.770;4.008;2023-04-03T01:31:57;101089.13;;;10.70;48.90
13974;BME280;7060;43.770;4.008;2023-04-03T01:34:27;101139.19;;;10.99;48.98
13974;BME280;7060;43.770;4.008;2023-04-03T01:36:56;101137.63;;;10.96;48.89
13974;BME280;7060;43.770;4.008;2023-04-03T01:39:25;101136.66;;;10.97;48.82
13974;BME280;7060;43.770;4.008;2023-04-03T01:41:53;101142.97;;;10.96;49.23
13974;BME280;7060;43.770;4.008;2023-04-03T01:44:29;101136.06;;;10.94;49.37
13974;BME280;7060;43.770;4.008;2023-04-03T01:47:00;101139.03;;;10.91;49.75
13974;BME280;7060;43.770;4.008;2023-04-03T01:49:29;101124.50;;;10.83;49.51
13974;BME280;7060;43.770;4.008;2023-04-03T01:51:58;101127.44;;;10.80;49.57
13974;BME280;7060;43.770;4.008;2023-04-03T01:54:27;101121.25;;;10.80;49.45
13974;BME280;7060;43.770;4.008;2023-04-03T01:56:55;101117.03;;;10.77;49.42
13974;BME280;7060;43.770;4.008;2023-04-03T01:59:25;101124.06;;;10.78;49.25
13974;BME280;7060;43.770;4.008;2023-04-03T02:01:53;101124.34;;;10.75;49.36
13974;BME280;7060;43.770;4.008;2023-04-03T02:04:23;101076.13;;;10.46;49.16
13974;BME280;7060;43.770;4.008;2023-04-03T02:06:52;101124.19;;;10.77;50.12
13974;BME280;7060;43.770;4.008;2023-04-03T02:09:20;101120.94;;;10.73;49.98
13974;BME280;7060;43.770;4.008;2023-04-03T02:11:49;101119.53;;;10.69;49.69
13974;BME280;7060;43.770;4.008;2023-04-03T02:14:18;101123.31;;;10.67;49.87
13974;BME280;7060;43.770;4.008;2023-04-03T02:16:48;101114.59;;;10.65;50.46
13974;BME280;7060;43.770;4.008;2023-04-03T02:19:17;101126.25;;;10.64;50.23
13974;BME280;7060;43.770;4.008;2023-04-03T02:21:47;101123.00;;;10.60;50.09
13974;BME280;7060;43.770;4.008;2023-04-03T02:24:15;101118.66;;;10.59;50.09
13974;BME280;7060;43.770;4.008;2023-04-03T02:26:44;101116.94;;;10.58;49.77
13974;BME280;7060;43.770;4.008;2023-04-03T02:29:12;101112.00;;;10.53;50.54
13974;BME280;7060;43.770;4.008;2023-04-03T02:31:41;101109.31;;;10.44;50.38
13974;BME280;7060;43.770;4.008;2023-04-03T02:34:10;101108.03;;;10.38;50.25
13974;BME280;7060;43.770;4.008;2023-04-03T02:36:38;101108.31;;;10.35;50.37
13974;BME280;7060;43.770;4.008;2023-04-03T02:39:10;101112.09;;;10.33;51.09
13974;BME280;7060;43.770;4.008;2023-04-03T02:41:39;101111.66;;;10.28;50.74
13974;BME280;7060;43.770;4.008;2023-04-03T02:44:13;101108.25;;;10.26;50.53
13974;BME280;7060;43.770;4.008;2023-04-03T02:46:42;101111.91;;;10.25;50.52
13974;BME280;7060;43.770;4.008;2023-04-03T02:49:10;101113.19;;;10.21;51.21
13974;BME280;7060;43.770;4.008;2023-04-03T02:51:40;101114.09;;;10.10;51.06
13974;BME280;7060;43.770;4.008;2023-04-03T02:54:10;101112.53;;;10.07;51.11
13974;BME280;7060;43.770;4.008;2023-04-03T02:56:43;101105.50;;;10.06;51.14
13974;BME280;7060;43.770;4.008;2023-04-03T02:59:11;101113.78;;;10.03;51.63
13974;BME280;7060;43.770;4.008;2023-04-03T03:01:41;101104.47;;;9.98;51.88
13974;BME280;7060;43.770;4.008;2023-04-03T03:04:09;101103.47;;;9.89;52.69
13974;BME280;7060;43.770;4.008;2023-04-03T03:06:39;101036.28;;;9.42;52.75
13974;BME280;7060;43.770;4.008;2023-04-03T03:09:12;101096.03;;;9.72;52.51
13974;BME280;7060;43.770;4.008;2023-04-03T03:11:42;101107.28;;;9.66;52.64
13974;BME280;7060;43.770;4.008;2023-04-03T03:14:10;101103.41;;;9.59;52.21
13974;BME280;7060;43.770;4.008;2023-04-03T03:16:39;101100.28;;;9.54;52.13
13974;BME280;7060;43.770;4.008;2023-04-03T03:19:09;101099.31;;;9.55;52.25
13974;BME280;7060;43.770;4.008;2023-04-03T03:21:38;101095.22;;;9.50;53.02
13974;BME280;7060;43.770;4.008;2023-04-03T03:24:07;101096.91;;;9.51;52.84
13974;BME280;7060;43.770;4.008;2023-04-03T03:26:36;101091.19;;;9.56;53.45
13974;BME280;7060;43.770;4.008;2023-04-03T03:29:05;101093.25;;;9.52;53.35
13974;BME280;7060;43.770;4.008;2023-04-03T03:31:33;101096.44;;;9.46;53.21
13974;BME280;7060;43.770;4.008;2023-04-03T03:34:02;101086.03;;;9.43;53.32
13974;BME280;7060;43.770;4.008;2023-04-03T03:36:30;101098.38;;;9.44;53.06
13974;BME280;7060;43.770;4.008;2023-04-03T03:39:00;101086.59;;;9.47;52.77
13974;BME280;7060;43.770;4.008;2023-04-03T03:41:28;101091.09;;;9.46;52.64
13974;BME280;7060;43.770;4.008;2023-04-03T03:43:58;101092.94;;;9.46;52.41
13974;BME280;7060;43.770;4.008;2023-04-03T03:46:30;101086.16;;;9.42;52.61
13974;BME280;7060;43.770;4.008;2023-04-03T03:48:58;101086.56;;;9.37;52.77
13974;BME280;7060;43.770;4.008;2023-04-03T03:51:27;101080.63;;;9.34;53.74
13974;BME280;7060;43.770;4.008;2023-04-03T03:53:57;101085.13;;;9.33;53.35
13974;BME280;7060;43.770;4.008;2023-04-03T03:56:27;101086.09;;;9.32;53.34
13974;BME280;7060;43.770;4.008;2023-04-03T03:58:57;101085.72;;;9.37;53.89
13974;BME280;7060;43.770;4.008;2023-04-03T04:01:26;101081.94;;;9.39;52.91
13974;BME280;7060;43.770;4.008;2023-04-03T04:03:55;101077.59;;;9.38;52.78
13974;BME280;7060;43.770;4.008;2023-04-03T04:06:28;101080.25;;;9.38;53.13
13974;BME280;7060;43.770;4.008;2023-04-03T04:09:01;101082.91;;;9.38;53.13
13974;BME280;7060;43.770;4.008;2023-04-03T04:11:30;101084.44;;;9.41;53.30
13974;BME280;7060;43.770;4.008;2023-04-03T04:14:02;101086.88;;;9.44;52.88
13974;BME280;7060;43.770;4.008;2023-04-03T04:16:30;101087.00;;;9.42;52.62
13974;BME280;7060;43.770;4.008;2023-04-03T04:19:05;101082.63;;;9.41;53.24
13974;BME280;7060;43.770;4.008;2023-04-03T04:21:36;101086.03;;;9.43;52.96
13974;BME280;7060;43.770;4.008;2023-04-03T04:24:06;101086.59;;;9.47;52.70
13974;BME280;7060;43.770;4.008;2023-04-03T04:26:35;101075.94;;;9.47;52.92
13974;BME280;7060;43.770;4.008;2023-04-03T04:29:05;101079.31;;;9.49;53.01
13974;BME280;7060;43.770;4.008;2023-04-03T04:31:35;101082.84;;;9.49;52.44
13974;BME280;7060;43.770;4.008;2023-04-03T04:34:03;101080.03;;;9.51;52.81
13974;BME280;7060;43.770;4.008;2023-04-03T04:36:33;101066.81;;;9.49;52.70
13974;BME280;7060;43.770;4.008;2023-04-03T04:39:01;101078.22;;;9.51;51.94
13974;BME280;7060;43.770;4.008;2023-04-03T04:41:30;101076.13;;;9.55;52.26
13974;BME280;7060;43.770;4.008;2023-04-03T04:44:01;101074.06;;;9.59;52.24
13974;BME280;7060;43.770;4.008;2023-04-03T04:46:32;101072.09;;;9.61;52.74
13974;BME280;7060;43.770;4.008;2023-04-03T04:49:01;101077.44;;;9.61;52.45
13974;BME280;7060;43.770;4.008;2023-04-03T04:51:30;101074.78;;;9.61;52.11
13974;BME280;7060;43.770;4.008;2023-04-03T04:54:11;101069.56;;;9.59;52.58
13974;BME280;7060;43.770;4.008;2023-04-03T04:56:40;101062.66;;;9.57;52.55
13974;BME280;7060;43.770;4.008;2023-04-03T04:59:08;101058.56;;;9.52;52.60
13974;BME280;7060;43.770;4.008;2023-04-03T05:01:38;101065.00;;;9.50;52.88
13974;BME280;7060;43.770;4.008;2023-04-03T05:04:12;101058.22;;;9.46;53.30
13974;BME280;7060;43.770;4.008;2023-04-03T05:06:42;101055.81;;;9.43;53.29
13974;BME280;7060;43.770;4.008;2023-04-03T05:09:15;101064.50;;;9.35;53.77
13974;BME280;7060;43.770;4.008;2023-04-03T05:11:45;101057.97;;;9.28;53.44
13974;BME280;7060;43.770;4.008;2023-04-03T05:14:16;101059.94;;;9.26;53.93
13974;BME280;7060;43.770;4.008;2023-04-03T05:16:46;101052.91;;;9.25;53.55
13974;BME280;7060;43.770;4.008;2023-04-03T05:19:19;101056.53;;;9.24;53.51
13974;BME280;7060;43.770;4.008;2023-04-03T05:21:48;101016.41;;;8.94;54.41
13974;BME280;7060;43.770;4.008;2023-04-03T05:24:17;101062.16;;;9.10;54.85
13974;BME280;7060;43.770;4.008;2023-04-03T05:26:46;101057.59;;;9.01;54.80
13974;BME280;7060;43.770;4.008;2023-04-03T05:29:16;101066.19;;;9.04;53.77
13974;BME280;7060;43.770;4.008;2023-04-03T05:31:48;101002.22;;;8.72;53.51
13974;BME280;7060;43.770;4.008;2023-04-03T05:34:18;101069.03;;;9.12;53.95
13974;BME280;7060;43.770;4.008;2023-04-03T05:36:48;101061.03;;;9.12;54.04
13974;BME280;7060;43.770;4.008;2023-04-03T05:39:17;101067.09;;;9.14;53.28
13974;BME280;7060;43.770;4.008;2023-04-03T05:41:47;101064.19;;;9.17;53.26
13974;BME280;7060;43.770;4.008;2023-04-03T05:44:15;101072.69;;;9.23;53.87
13974;BME280;7060;43.770;4.008;2023-04-03T05:46:47;101060.66;;;9.28;53.27
13974;BME280;7060;43.770;4.008;2023-04-03T05:49:16;101065.00;;;9.29;53.47
13974;BME280;7060;43.770;4.008;2023-04-03T05:51:44;100958.59;;;8.73;53.63
13974;BME280;7060;43.770;4.008;2023-04-03T05:54:24;101061.69;;;9.37;53.01
13974;BME280;7060;43.770;4.008;2023-04-03T05:56:58;101065.94;;;9.39;53.49
13974;BME280;7060;43.770;4.008;2023-04-03T05:59:27;101068.19;;;9.44;53.26
13974;BME280;7060;43.770;4.008;2023-04-03T06:01:59;101073.97;;;9.49;52.55
13974;BME280;7060;43.770;4.008;2023-04-03T06:04:28;101023.56;;;9.25;52.65
13974;BME280;7060;43.770;4.008;2023-04-03T06:06:57;101071.97;;;9.62;52.67
13974;BME280;7060;43.770;4.008;2023-04-03T06:09:28;101075.25;;;9.75;52.59
13974;BME280;7060;43.770;4.008;2023-04-03T06:11:58;101081.13;;;9.90;52.03
13974;BME280;7060;43.770;4.008;2023-04-03T06:14:28;101081.34;;;10.08;51.12
13974;BME280;7060;43.770;4.008;2023-04-03T06:16:58;101075.91;;;10.29;50.94
13974;BME280;7060;43.770;4.008;2023-04-03T06:19:28;101077.84;;;10.57;50.27
13974;BME280;7060;43.770;4.008;2023-04-03T06:21:57;101092.13;;;10.86;50.05
13974;BME280;7060;43.770;4.008;2023-04-03T06:24:26;101091.72;;;11.20;49.36
13974;BME280;7060;43.770;4.008;2023-04-03T06:26:55;101089.31;;;11.56;47.96
13974;BME280;7060;43.770;4.008;2023-04-03T06:29:23;101071.63;;;11.82;47.84
13974;BME280;7060;43.770;4.008;2023-04-03T06:31:52;101048.97;;;12.04;47.20
13974;BME280;7060;43.770;4.008;2023-04-03T06:34:22;101086.88;;;12.73;46.45
13974;BME280;7060;43.770;4.008;2023-04-03T06:36:50;101084.44;;;13.15;44.66
13974;BME280;7060;43.770;4.008;2023-04-03T06:39:20;101082.34;;;13.63;43.30
13974;BME280;7060;43.770;4.008;2023-04-03T06:41:50;101086.47;;;14.01;42.96
13974;BME280;7060;43.770;4.008;2023-04-03T06:44:27;101083.81;;;14.51;42.03
13974;BME280;7060;43.770;4.008;2023-04-03T06:46:55;101074.19;;;14.90;41.17
13974;BME280;7060;43.770;4.008;2023-04-03T06:49:25;101072.03;;;15.18;40.82
13974;BME280;7060;43.770;4.008;2023-04-03T06:51:54;101081.97;;;15.58;39.64
13974;BME280;7060;43.770;4.008;2023-04-03T06:54:24;101072.50;;;15.95;38.90
13974;BME280;7060;43.770;4.008;2023-04-03T06:56:53;101075.81;;;16.21;38.58
13974;BME280;7060;43.770;4.008;2023-04-03T06:59:21;101071.25;;;16.53;38.01
13974;BME280;7060;43.770;4.008;2023-04-03T07:01:50;101063.72;;;16.79;37.56
13974;BME280;7060;43.770;4.008;2023-04-03T07:04:20;101060.75;;;16.97;37.19
13974;BME280;7060;43.770;4.008;2023-04-03T07:06:50;101051.38;;;17.08;36.24
13974;BME280;7060;43.770;4.008;2023-04-03T07:09:19;101057.56;;;16.93;36.51
13974;BME280;7060;43.770;4.008;2023-04-03T07:11:48;101049.78;;;16.68;36.97
13974;BME280;7060;43.770;4.008;2023-04-03T07:14:16;101059.78;;;16.51;37.05
13974;BME280;7060;43.770;4.008;2023-04-03T07:16:45;101052.59;;;16.43;37.51
13974;BME280;7060;43.770;4.008;2023-04-03T07:19:14;101058.34;;;16.40;37.79
13974;BME280;7060;43.770;4.008;2023-04-03T07:21:42;101059.03;;;16.34;38.06
13974;BME280;7060;43.770;4.008;2023-04-03T07:24:12;101007.91;;;16.02;37.71
13974;BME280;7060;43.770;4.008;2023-04-03T07:26:42;101058.22;;;16.25;37.98
13974;BME280;7060;43.770;4.008;2023-04-03T07:29:12;101056.16;;;16.36;38.44
13974;BME280;7060;43.770;4.008;2023-04-03T07:31:41;101062.44;;;16.28;37.23
13974;BME280;7060;43.770;4.008;2023-04-03T07:34:10;101059.25;;;16.24;37.42
13974;BME280;7060;43.770;4.008;2023-04-03T07:36:38;101057.59;;;16.15;37.34
13974;BME280;7060;43.770;4.008;2023-04-03T07:39:07;101060.66;;;16.12;37.40
13974;BME280;7060;43.770;4.008;2023-04-03T07:41:37;101053.25;;;15.98;37.25
13974;BME280;7060;43.770;4.008;2023-04-03T07:44:06;101059.03;;;15.87;37.33
13974;BME280;7060;43.770;4.008;2023-04-03T07:46:36;101060.56;;;15.81;37.25
13974;BME280;7060;43.770;4.008;2023-04-03T07:49:05;101059.72;;;15.81;37.55
13974;BME280;7060;43.770;4.008;2023-04-03T07:51:33;101066.28;;;15.86;37.88
13974;BME280;7060;43.770;4.008;2023-04-03T07:54:02;101058.38;;;15.85;37.60
13974;BME280;7060;43.770;4.008;2023-04-03T07:56:31;101044.56;;;15.80;38.06
13974;BME280;7060;43.770;4.008;2023-04-03T07:59:01;101056.00;;;15.90;36.98
13974;BME280;7060;43.770;4.008;2023-04-03T08:01:30;101059.88;;;15.87;37.20
13974;BME280;7060;43.770;4.008;2023-04-03T08:04:01;101063.72;;;16.01;38.62
13974;BME280;7060;43.770;4.008;2023-04-03T08:06:30;101011.22;;;15.73;37.22
13974;BME280;7060;43.770;4.008;2023-04-03T08:09:12;101066.22;;;16.11;37.26
13974;BME280;7060;43.770;4.008;2023-04-03T08:11:42;101055.75;;;16.16;37.32
13974;BME280;7060;43.770;4.008;2023-04-03T08:14:14;101058.78;;;16.21;36.71
13974;BME280;7060;43.770;4.008;2023-04-03T08:16:46;101062.00;;;16.16;36.49
13974;BME280;7060;43.770;4.008;2023-04-03T08:19:15;101064.84;;;16.15;36.21
13974;BME280;7060;43.770;4.008;2023-04-03T08:21:53;101059.63;;;16.13;37.03
13974;BME280;7060;43.770;4.008;2023-04-03T08:24:22;101064.19;;;16.13;37.24
13974;BME280;7060;43.770;4.008;2023-04-03T08:26:50;101069.06;;;16.17;37.38
13974;BME280;7060;43.770;4.008;2023-04-03T08:29:20;101070.03;;;16.24;37.03
13974;BME280;7060;43.770;4.008;2023-04-03T08:31:49;101063.78;;;16.24;36.73
13974;BME280;7060;43.770;4.008;2023-04-03T08:34:18;101051.53;;;16.21;36.40
13974;BME280;7060;43.770;4.008;2023-04-03T08:36:47;101049.91;;;16.43;36.79
13974;BME280;7060;43.770;4.008;2023-04-03T08:39:15;101044.56;;;16.58;35.85
13974;BME280;7060;43.770;4.008;2023-04-03T08:41:45;101041.03;;;16.66;36.72
13974;BME280;7060;43.770;4.008;2023-04-03T08:44:18;101053.75;;;16.80;35.90
13974;BME280;7060;43.770;4.008;2023-04-03T08:47:02;101001.56;;;16.56;35.94
13974;BME280;7060;43.770;4.008;2023-04-03T08:49:35;101054.50;;;16.97;36.71
13974;BME280;7060;43.770;4.008;2023-04-03T08:52:11;101048.47;;;17.09;37.82
13974;BME280;7060;43.770;4.008;2023-04-03T08:54:49;101015.25;;;16.86;36.29
13974;BME280;7060;43.770;4.008;2023-04-03T08:57:23;100990.63;;;16.81;36.02
13974;BME280;7060;43.770;4.008;2023-04-03T08:59:54;101034.09;;;17.17;36.41
13974;BME280;7060;43.770;4.008;2023-04-03T09:02:28;101038.13;;;17.36;36.60
13974;BME280;7060;43.770;4.008;2023-04-03T09:04:57;101015.47;;;17.22;35.46
13974;BME280;7060;43.770;4.008;2023-04-03T09:07:35;101029.84;;;17.37;35.36
13974;BME280;7060;43.770;4.008;2023-04-03T09:10:06;101028.28;;;17.43;35.67
13974;BME280;7060;43.770;4.008;2023-04-03T09:12:38;101017.66;;;17.41;35.24
13974;BME280;7060;43.770;4.008;2023-04-03T09:15:16;101010.75;;;17.39;35.59
13974;BME280;7060;43.770;4.008;2023-04-03T09:18:05;100982.03;;;17.23;35.61
13974;BME280;7060;43.770;4.008;2023-04-03T09:20:44;100996.31;;;17.46;36.04
13974;BME280;7060;43.770;4.008;2023-04-03T09:23:19;100992.28;;;17.42;36.39
13974;BME280;7060;43.770;4.008;2023-04-03T09:25:51;101002.44;;;17.40;35.06
13974;BME280;7060;43.770;4.008;2023-04-03T09:28:21;100980.53;;;17.20;35.97
13974;BME280;7060;43.770;4.008;2023-04-03T09:30:51;101012.41;;;17.40;36.21
13974;BME280;7060;43.770;4.008;2023-04-03T09:33:21;101004.72;;;17.51;37.03
13974;BME280;7060;43.770;4.008;2023-04-03T09:35:51;100994.00;;;17.58;36.63
13974;BME280;7060;43.770;4.008;2023-04-03T09:38:22;101004.19;;;17.71;36.54
13974;BME280;7060;43.770;4.008;2023-04-03T09:41:04;101000.47;;;17.72;36.40
13974;BME280;7060;43.770;4.008;2023-04-03T09:43:33;101001.03;;;17.67;35.64
13974;BME280;7060;43.770;4.008;2023-04-03T09:46:29;100948.41;;;17.25;35.82
13974;BME280;7060;43.770;4.008;2023-04-03T09:49:02;100990.53;;;17.49;35.96
13974;BME280;7060;43.770;4.008;2023-04-03T09:51:36;100987.47;;;17.52;36.24
13974;BME280;7060;43.770;4.008;2023-04-03T09:54:36;100994.50;;;17.62;35.51
13974;BME280;7060;43.770;4.008;2023-04-03T09:57:11;100987.59;;;17.59;34.96
13974;BME280;7060;43.770;4.008;2023-04-03T09:59:45;100994.13;;;17.65;34.77
13974;BME280;7060;43.770;4.008;2023-04-03T10:02:25;100982.00;;;17.60;34.21
13974;BME280;7060;43.770;4.008;2023-04-03T10:04:58;100976.59;;;17.60;35.15
13974;BME280;7060;43.770;4.008;2023-04-03T10:07:37;100980.88;;;17.70;35.12
13974;BME280;7060;43.770;4.008;2023-04-03T10:10:21;100981.47;;;17.80;34.63
13974;BME280;7060;43.770;4.008;2023-04-03T10:13:03;100971.44;;;17.95;34.42
13974;BME280;7060;43.770;4.008;2023-04-03T10:15:36;100981.50;;;18.16;35.34
13974;BME280;7060;43.770;4.008;2023-04-03T10:18:23;100972.59;;;18.37;34.51
13974;BME280;7060;43.770;4.008;2023-04-03T10:21:02;100965.00;;;18.62;35.04
13974;BME280;7060;43.770;4.008;2023-04-03T10:23:42;100948.91;;;18.81;34.10
13974;BME280;7060;43.770;4.008;2023-04-03T10:26:20;100972.34;;;18.89;33.83
13974;BME280;7060;43.770;4.008;2023-04-03T10:28:58;100965.75;;;18.77;33.60
13974;BME280;7060;43.770;4.008;2023-04-03T10:31:32;100953.41;;;18.68;33.60
13974;BME280;7060;43.770;4.008;2023-04-03T10:34:07;100942.84;;;18.79;33.97
13974;BME280;7060;43.770;4.008;2023-04-03T10:36:46;100963.94;;;18.84;33.36
13974;BME280;7060;43.770;4.008;2023-04-03T10:39:27;100945.56;;;18.79;33.32
13974;BME280;7060;43.770;4.008;2023-04-03T10:42:02;100949.00;;;18.88;33.79
13974;BME280;7060;43.770;4.008;2023-04-03T10:44:52;100950.38;;;19.05;33.60
13974;BME280;7060;43.770;4.008;2023-04-03T10:47:30;100950.06;;;19.15;32.31
13974;BME280;7060;43.770;4.008;2023-04-03T10:50:27;100941.22;;;19.06;31.79
13974;BME280;7060;43.770;4.008;2023-04-03T10:53:03;100939.63;;;18.90;31.92
13974;BME280;7060;43.770;4.008;2023-04-03T10:55:36;100944.97;;;19.05;33.12
13974;BME280;7060;43.770;4.008;2023-04-03T10:58:12;100930.75;;;19.03;32.88
13974;BME280;7060;43.770;4.008;2023-04-03T11:00:49;100920.09;;;18.95;32.15
13974;BME280;7060;43.770;4.008;2023-04-03T11:03:28;100898.63;;;18.93;31.67
13974;BME280;7060;43.770;4.008;2023-04-03T11:06:00;100921.78;;;19.03;31.92
13974;BME280;7060;43.770;4.008;2023-04-03T11:08:35;100916.69;;;19.14;31.32
13974;BME280;7060;43.770;4.008;2023-04-03T11:11:09;100924.47;;;19.24;31.60
13974;BME280;7060;43.770;4.008;2023-04-03T11:13:42;100920.50;;;19.26;31.50
13974;BME280;7060;43.770;4.008;2023-04-03T11:16:16;100866.09;;;18.93;31.44
13974;BME280;7060;43.770;4.008;2023-04-03T11:18:49;100916.81;;;19.34;31.05
13974;BME280;7060;43.770;4.008;2023-04-03T11:21:20;100913.75;;;19.37;31.43
13974;BME280;7060;43.770;4.008;2023-04-03T11:23:56;100911.91;;;19.44;31.10
13974;BME280;7060;43.770;4.008;2023-04-03T11:26:29;100902.16;;;19.50;31.60
13974;BME280;7060;43.770;4.008;2023-04-03T11:29:04;100871.97;;;19.32;30.97
13974;BME280;7060;43.770;4.008;2023-04-03T11:31:46;100902.75;;;19.52;31.37
13974;BME280;7060;43.770;4.008;2023-04-03T11:34:27;100893.59;;;19.53;32.44
13974;BME280;7060;43.770;4.008;2023-04-03T11:37:01;100884.47;;;19.60;31.62
13974;BME280;7060;43.770;4.008;2023-04-03T11:39:37;100882.22;;;19.71;31.55
13974;BME280;7060;43.770;4.008;2023-04-03T11:42:15;100888.69;;;19.70;31.61
13974;BME280;7060;43.770;4.008;2023-04-03T11:44:44;100880.75;;;19.68;31.16
13974;BME280;7060;43.770;4.008;2023-04-03T11:47:46;100875.97;;;19.70;31.65
13974;BME280;7060;43.770;4.008;2023-04-03T11:50:41;100870.53;;;19.70;30.99
13974;BME280;7060;43.770;4.008;2023-04-03T11:53:29;100867.63;;;19.72;31.02
13974;BME280;7060;43.770;4.008;2023-04-03T11:56:04;100860.75;;;19.76;31.23
13974;BME280;7060;43.770;4.008;2023-04-03T11:58:33;100864.03;;;19.65;31.13
13974;BME280;7060;43.770;4.008;2023-04-03T12:01:06;100858.81;;;19.63;31.39
13974;BME280;7060;43.770;4.008;2023-04-03T12:03:56;100863.00;;;19.66;31.27
13974;BME280;7060;43.770;4.008;2023-04-03T12:09:54;100852.56;;;19.28;31.51
13974;BME280;7060;43.770;4.008;2023-04-03T12:12:32;100823.63;;;19.01;31.82
13974;BME280;7060;43.770;4.008;2023-04-03T12:15:41;100850.09;;;19.33;31.23
13974;BME280;7060;43.770;4.008;2023-04-03T12:21:21;100840.03;;;19.27;31.56
13974;BME280;7060;43.770;4.008;2023-04-03T12:23:59;100836.13;;;19.36;33.08
13974;BME280;7060;43.770;4.008;2023-04-03T12:26:34;100835.16;;;19.44;32.82
13974;BME280;7060;43.770;4.008;2023-04-03T12:29:20;100826.06;;;19.30;31.87
13974;BME280;7060;43.770;4.008;2023-04-03T12:32:03;100820.41;;;19.25;32.09
13974;BME280;7060;43.770;4.008;2023-04-03T12:34:51;100823.97;;;19.25;31.62
13974;BME280;7060;43.770;4.008;2023-04-03T12:37:40;100833.25;;;19.38;32.64
13974;BME280;7060;43.770;4.008;2023-04-03T12:40:21;100745.69;;;19.03;32.02
13974;BME280;7060;43.770;4.008;2023-04-03T12:43:11;100820.03;;;19.28;32.28
13974;BME280;7060;43.770;4.008;2023-04-03T12:45:50;100814.59;;;19.21;32.50
13974;BME280;7060;43.770;4.008;2023-04-03T12:48:25;100812.91;;;19.27;32.05
13974;BME280;7060;43.770;4.008;2023-04-03T12:50:54;100803.91;;;19.48;31.83
13974;BME280;7060;43.770;4.008;2023-04-03T12:53:26;100794.94;;;19.54;31.74
13974;BME280;7060;43.770;4.008;2023-04-03T12:56:20;100803.50;;;19.51;31.60
13974;BME280;7060;43.770;4.008;2023-04-03T12:58:51;100798.44;;;19.41;31.81
13974;BME280;7060;43.770;4.008;2023-04-03T13:01:23;100798.47;;;19.48;31.70
13974;BME280;7060;43.770;4.008;2023-04-03T13:03:54;100785.94;;;19.40;31.66
13974;BME280;7060;43.770;4.008;2023-04-03T13:06:26;100772.59;;;19.45;31.72
13974;BME280;7060;43.770;4.008;2023-04-03T13:08:57;100771.38;;;19.48;31.70
13974;BME280;7060;43.770;4.008;2023-04-03T13:11:30;100781.63;;;19.24;32.07
13974;BME280;7060;43.770;4.008;2023-04-03T13:14:01;100782.91;;;19.28;32.30
13974;BME280;7060;43.770;4.008;2023-04-03T13:16:33;100779.88;;;19.38;31.81
13974;BME280;7060;43.770;4.008;2023-04-03T13:19:02;100783.44;;;19.52;32.67
13974;BME280;7060;43.770;4.008;2023-04-03T13:21:32;100780.53;;;19.53;31.92
13974;BME280;7060;43.770;4.008;2023-04-03T13:24:03;100779.91;;;19.45;31.62
13974;BME280;7060;43.770;4.008;2023-04-03T13:26:42;100773.00;;;19.42;31.52
13974;BME280;7060;43.770;4.008;2023-04-03T13:29:22;100783.66;;;19.44;30.94
13974;BME280;7060;43.770;4.008;2023-04-03T13:32:00;100770.50;;;19.41;31.74
13974;BME280;7060;43.770;4.008;2023-04-03T13:34:36;100772.38;;;19.40;31.29
13974;BME280;7060;43.770;4.008;2023-04-03T13:37:05;100756.19;;;19.25;31.65
13974;BME280;7060;43.770;4.008;2023-04-03T13:39:36;100771.47;;;19.33;32.87